sensor_id;sensor_type;location;lat;lon;timestamp;temperature;humidity
66271;DHT22;53063;39.614;8.814;2023-03-12T00:00:33;13.30;99.90
66271;DHT22;53063;39.614;8.814;2023-03-12T00:02:59;13.30;99.90
66271;DHT22;53063;39.614;8.814;2023-03-12T00:05:25;13.30;99.90
66271;DHT22;53063;39.614;8.814;2023-03-12T00:07:51;13.20;99.90
66271;DHT22;53063;39.614;8.814;2023-03-12T00:10:19;13.20;99.90
66271;DHT22;53063;39.614;8.814;2023-03-12T00:12:45;13.20;99.90
66271;DHT22;53063;39.614;8.814;2023-03-12T00:15:11;13.20;99.90
66271;DHT22;53063;39.614;8.814;2023-03-12T00:17:37;13.20;99.90
66271;DHT22;53063;39.614;8.814;2023-03-12T00:20:03;13.20;99.90
66271;DHT22;53063;39.614;8.814;2023-03-12T00:22:32;13.20;99.90
66271;DHT22;53063;39.614;8.814;2023-03-12T00:24:58;13.20;99.90
66271;DHT22;53063;39.614;8.814;2023-03-12T00:27:24;13.20;99.90
66271;DHT22;53063;39.614;8.814;2023-03-12T00:29:50;13.20;99.90
66271;DHT22;53063;39.614;8.814;2023-03-12T00:32:16;13.20;99.90
66271;DHT22;53063;39.614;8.814;2023-03-12T00:34:43;13.20;99.90
66271;DHT22;53063;39.614;8.814;2023-03-12T00:37:09;13.20;99.90
66271;DHT22;53063;39.614;8.814;2023-03-12T00:39:35;13.10;99.90
66271;DHT22;53063;39.614;8.814;2023-03-12T00:42:01;13.20;99.90
66271;DHT22;53063;39.614;8.814;2023-03-12T00:44:27;13.10;99.90
66271;DHT22;53063;39.614;8.814;2023-03-12T00:46:53;13.10;99.90
66271;DHT22;53063;39.614;8.814;2023-03-12T00:49:19;13.10;99.90
66271;DHT22;53063;39.614;8.814;2023-03-12T00:51:45;13.10;99.90
66271;DHT22;53063;39.614;8.814;2023-03-12T00:54:11;13.00;99.90
66271;DHT22;53063;39.614;8.814;2023-03-12T00:56:37;13.00;99.90
66271;DHT22;53063;39.614;8.814;2023-03-12T00:59:03;13.00;99.90
66271;DHT22;53063;39.614;8.814;2023-03-12T01:01:29;12.90;99.90
66271;DHT22;53063;39.614;8.814;2023-03-12T01:03:55;12.90;99.90
66271;DHT22;53063;39.614;8.814;2023-03-12T01:06:22;12.80;99.90
66271;DHT22;53063;39.614;8.814;2023-03-12T01:08:48;12.90;99.90
66271;DHT22;53063;39.614;8.814;2023-03-12T01:11:16;12.90;99.90
66271;DHT22;53063;39.614;8.814;2023-03-12T01:13:42;12.80;99.90
66271;DHT22;53063;39.614;8.814;2023-03-12T01:16:08;12.80;99.90
66271;DHT22;53063;39.614;8.814;2023-03-12T01:18:34;12.80;99.90
66271;DHT22;53063;39.614;8.814;2023-03-12T01:21:01;12.80;99.90
66271;DHT22;53063;39.614;8.814;2023-03-12T01:23:27;12.70;99.90
66271;DHT22;53063;39.614;8.814;2023-03-12T01:25:53;12.70;99.90
66271;DHT22;53063;39.614;8.814;2023-03-12T01:28:22;12.60;99.90
66271;DHT22;53063;39.614;8.814;2023-03-12T01:30:49;12.60;99.90
66271;DHT22;53063;39.614;8.814;2023-03-12T01:33:15;12.50;99.90
66271;DHT22;53063;39.614;8.814;2023-03-12T01:35:41;12.60;99.90
66271;DHT22;53063;39.614;8.814;2023-03-12T01:38:11;12.60;99.90
66271;DHT22;53063;39.614;8.814;2023-03-12T01:40:37;12.60;99.90
66271;DHT22;53063;39.614;8.814;2023-03-12T01:48:56;12.70;99.90
66271;DHT22;53063;39.614;8.814;2023-03-12T01:51:27;12.60;99.90
66271;DHT22;53063;39.614;8.814;2023-03-12T01:53:59;12.60;99.90
66271;DHT22;53063;39.614;8.814;2023-03-12T01:56:29;12.60;99.90
66271;DHT22;53063;39.614;8.814;2023-03-12T01:58:59;12.60;99.90
66271;DHT22;53063;39.614;8.814;2023-03-12T02:01:28;12.60;99.90
66271;DHT22;53063;39.614;8.814;2023-03-12T02:03:55;12.60;99.90
66271;DHT22;53063;39.614;8.814;2023-03-12T02:06:41;12.60;99.90
66271;DHT22;53063;39.614;8.814;2023-03-12T02:09:08;12.60;99.90
66271;DHT22;53063;39.614;8.814;2023-03-12T02:11:34;12.60;99.90
66271;DHT22;53063;39.614;8.814;2023-03-12T02:14:01;12.60;99.90
66271;DHT22;53063;39.614;8.814;2023-03-12T02:16:27;12.60;99.90
66271;DHT22;53063;39.614;8.814;2023-03-12T02:18:54;12.60;99.90
66271;DHT22;53063;39.614;8.814;2023-03-12T02:21:29;12.60;99.90
66271;DHT22;53063;39.614;8.814;2023-03-12T02:24:23;12.50;99.90
66271;DHT22;53063;39.614;8.814;2023-03-12T02:26:50;12.60;99.90
66271;DHT22;53063;39.614;8.814;2023-03-12T02:29:16;12.60;99.90
66271;DHT22;53063;39.614;8.814;2023-03-12T02:31:47;12.70;99.90
66271;DHT22;53063;39.614;8.814;2023-03-12T02:34:15;12.70;99.90
66271;DHT22;53063;39.614;8.814;2023-03-12T02:36:41;12.80;99.90
66271;DHT22;53063;39.614;8.814;2023-03-12T02:39:08;12.80;99.90
66271;DHT22;53063;39.614;8.814;2023-03-12T02:41:39;12.80;99.90
66271;DHT22;53063;39.614;8.814;2023-03-12T02:44:20;12.80;99.90
66271;DHT22;53063;39.614;8.814;2023-03-12T02:46:54;12.80;99.90
66271;DHT22;53063;39.614;8.814;2023-03-12T02:49:23;12.80;99.90
66271;DHT22;53063;39.614;8.814;2023-03-12T02:51:49;12.90;99.90
66271;DHT22;53063;39.614;8.814;2023-03-12T02:54:17;13.00;99.90
66271;DHT22;53063;39.614;8.814;2023-03-12T02:56:44;13.10;99.90
66271;DHT22;53063;39.614;8.814;2023-03-12T02:59:11;13.10;99.90
66271;DHT22;53063;39.614;8.814;2023-03-12T03:01:40;13.00;99.90
66271;DHT22;53063;39.614;8.814;2023-03-12T03:04:08;13.00;99.90
66271;DHT22;53063;39.614;8.814;2023-03-12T03:06:35;13.00;99.90
66271;DHT22;53063;39.614;8.814;2023-03-12T03:09:02;13.00;99.90
66271;DHT22;53063;39.614;8.814;2023-03-12T03:11:28;13.10;99.90
66271;DHT22;53063;39.614;8.814;2023-03-12T03:13:55;13.10;99.90
66271;DHT22;53063;39.614;8.814;2023-03-12T03:16:21;13.10;99.90
66271;DHT22;53063;39.614;8.814;2023-03-12T03:18:47;13.10;99.90
66271;DHT22;53063;39.614;8.814;2023-03-12T03:21:16;13.20;99.90
66271;DHT22;53063;39.614;8.814;2023-03-12T03:23:45;13.20;99.90
66271;DHT22;53063;39.614;8.814;2023-03-12T03:26:13;13.20;99.90
66271;DHT22;53063;39.614;8.814;2023-03-12T03:28:39;13.20;99.90
66271;DHT22;53063;39.614;8.814;2023-03-12T03:31:06;13.20;99.90
66271;DHT22;53063;39.614;8.814;2023-03-12T03:33:37;13.20;99.90
66271;DHT22;53063;39.614;8.814;2023-03-12T03:36:06;13.20;99.90
66271;DHT22;53063;39.614;8.814;2023-03-12T03:38:35;13.20;99.90
66271;DHT22;53063;39.614;8.814;2023-03-12T03:41:02;13.20;99.90
66271;DHT22;53063;39.614;8.814;2023-03-12T03:43:30;13.20;99.90
66271;DHT22;53063;39.614;8.814;2023-03-12T03:46:01;13.00;99.90
66271;DHT22;53063;39.614;8.814;2023-03-12T03:48:31;13.10;99.90
66271;DHT22;53063;39.614;8.814;2023-03-12T03:51:01;13.00;99.90
66271;DHT22;53063;39.614;8.814;2023-03-12T03:53:30;13.10;99.90
66271;DHT22;53063;39.614;8.814;2023-03-12T03:55:57;13.10;99.90
66271;DHT22;53063;39.614;8.814;2023-03-12T03:58:23;13.10;99.90
66271;DHT22;53063;39.614;8.814;2023-03-12T04:00:49;13.10;99.90
66271;DHT22;53063;39.614;8.814;2023-03-12T04:03:15;13.10;99.90
66271;DHT22;53063;39.614;8.814;2023-03-12T04:05:41;13.20;99.90
66271;DHT22;53063;39.614;8.814;2023-03-12T04:08:12;13.20;99.90
66271;DHT22;53063;39.614;8.814;2023-03-12T04:10:39;13.20;99.90
66271;DHT22;53063;39.614;8.814;2023-03-12T04:13:05;13.20;99.90
66271;DHT22;53063;39.614;8.814;2023-03-12T04:15:31;13.20;99.90
66271;DHT22;53063;39.614;8.814;2023-03-12T04:17:58;13.30;99.90
66271;DHT22;53063;39.614;8.814;2023-03-12T04:20:25;13.30;99.90
66271;DHT22;53063;39.614;8.814;2023-03-12T04:22:51;13.30;99.90
66271;DHT22;53063;39.614;8.814;2023-03-12T04:25:17;13.30;99.90
66271;DHT22;53063;39.614;8.814;2023-03-12T04:27:43;13.30;99.90
66271;DHT22;53063;39.614;8.814;2023-03-12T04:30:10;13.30;99.90
66271;DHT22;53063;39.614;8.814;2023-03-12T04:32:37;13.30;99.90
66271;DHT22;53063;39.614;8.814;2023-03-12T04:35:04;13.30;99.90
66271;DHT22;53063;39.614;8.814;2023-03-12T04:37:32;13.30;99.90
66271;DHT22;53063;39.614;8.814;2023-03-12T04:40:00;13.40;99.90
66271;DHT22;53063;39.614;8.814;2023-03-12T04:42:27;13.40;99.90
66271;DHT22;53063;39.614;8.814;2023-03-12T04:44:53;13.30;99.90
66271;DHT22;53063;39.614;8.814;2023-03-12T04:47:19;13.30;99.90
66271;DHT22;53063;39.614;8.814;2023-03-12T04:49:45;13.40;99.90
66271;DHT22;53063;39.614;8.814;2023-03-12T04:52:11;13.30;99.90
66271;DHT22;53063;39.614;8.814;2023-03-12T04:54:38;13.30;99.90
66271;DHT22;53063;39.614;8.814;2023-03-12T04:57:04;13.30;99.90
66271;DHT22;53063;39.614;8.814;2023-03-12T04:59:30;13.40;99.90
66271;DHT22;53063;39.614;8.814;2023-03-12T05:01:56;13.30;99.90
66271;DHT22;53063;39.614;8.814;2023-03-12T05:04:26;13.30;99.90
66271;DHT22;53063;39.614;8.814;2023-03-12T05:06:52;13.30;99.90
66271;DHT22;53063;39.614;8.814;2023-03-12T05:09:18;13.40;99.90
66271;DHT22;53063;39.614;8.814;2023-03-12T05:11:44;13.30;99.90
66271;DHT22;53063;39.614;8.814;2023-03-12T05:14:14;13.30;99.90
66271;DHT22;53063;39.614;8.814;2023-03-12T05:16:41;13.20;99.90
66271;DHT22;53063;39.614;8.814;2023-03-12T05:19:07;13.20;99.90
66271;DHT22;53063;39.614;8.814;2023-03-12T05:21:34;13.30;99.90
66271;DHT22;53063;39.614;8.814;2023-03-12T05:24:00;13.30;99.90
66271;DHT22;53063;39.614;8.814;2023-03-12T05:26:29;13.30;99.90
66271;DHT22;53063;39.614;8.814;2023-03-12T05:29:08;13.30;99.90
66271;DHT22;53063;39.614;8.814;2023-03-12T05:31:34;13.30;99.90
66271;DHT22;53063;39.614;8.814;2023-03-12T05:34:03;13.30;99.90
66271;DHT22;53063;39.614;8.814;2023-03-12T05:36:31;13.20;99.90
66271;DHT22;53063;39.614;8.814;2023-03-12T05:38:58;13.20;99.90
66271;DHT22;53063;39.614;8.814;2023-03-12T05:41:28;13.00;99.90
66271;DHT22;53063;39.614;8.814;2023-03-12T05:43:59;13.00;99.90
66271;DHT22;53063;39.614;8.814;2023-03-12T05:46:27;13.00;99.90
66271;DHT22;53063;39.614;8.814;2023-03-12T05:48:53;12.90;99.90
66271;DHT22;53063;39.614;8.814;2023-03-12T05:51:20;12.90;99.90
66271;DHT22;53063;39.614;8.814;2023-03-12T05:53:46;12.90;99.90
66271;DHT22;53063;39.614;8.814;2023-03-12T05:56:15;13.00;99.90
66271;DHT22;53063;39.614;8.814;2023-03-12T05:58:42;12.90;99.90
66271;DHT22;53063;39.614;8.814;2023-03-12T06:01:20;13.00;99.90
66271;DHT22;53063;39.614;8.814;2023-03-12T06:03:47;13.10;99.90
66271;DHT22;53063;39.614;8.814;2023-03-12T06:06:13;13.20;99.90
66271;DHT22;53063;39.614;8.814;2023-03-12T06:08:41;13.30;99.90
66271;DHT22;53063;39.614;8.814;2023-03-12T06:11:09;13.30;99.90
66271;DHT22;53063;39.614;8.814;2023-03-12T06:13:35;13.40;99.90
66271;DHT22;53063;39.614;8.814;2023-03-12T06:16:03;13.40;99.90
66271;DHT22;53063;39.614;8.814;2023-03-12T06:18:31;13.50;99.90
66271;DHT22;53063;39.614;8.814;2023-03-12T06:21:16;13.50;99.90
66271;DHT22;53063;39.614;8.814;2023-03-12T06:23:44;13.60;99.90
66271;DHT22;53063;39.614;8.814;2023-03-12T06:26:15;13.90;99.90
66271;DHT22;53063;39.614;8.814;2023-03-12T06:28:43;14.10;99.90
66271;DHT22;53063;39.614;8.814;2023-03-12T06:31:09;14.10;99.90
66271;DHT22;53063;39.614;8.814;2023-03-12T06:33:35;14.60;99.90
66271;DHT22;53063;39.614;8.814;2023-03-12T06:36:03;14.90;99.90
66271;DHT22;53063;39.614;8.814;2023-03-12T06:38:29;15.10;99.90
66271;DHT22;53063;39.614;8.814;2023-03-12T06:40:58;15.50;99.90
66271;DHT22;53063;39.614;8.814;2023-03-12T06:43:25;16.10;99.90
66271;DHT22;53063;39.614;8.814;2023-03-12T06:45:53;16.50;99.90
66271;DHT22;53063;39.614;8.814;2023-03-12T06:48:20;16.20;99.90
66271;DHT22;53063;39.614;8.814;2023-03-12T06:50:46;16.20;99.90
66271;DHT22;53063;39.614;8.814;2023-03-12T06:53:11;16.10;99.90
66271;DHT22;53063;39.614;8.814;2023-03-12T06:55:38;16.80;99.90
66271;DHT22;53063;39.614;8.814;2023-03-12T06:58:04;16.90;99.90
66271;DHT22;53063;39.614;8.814;2023-03-12T07:00:31;17.70;97.10
66271;DHT22;53063;39.614;8.814;2023-03-12T07:02:57;17.90;93.70
66271;DHT22;53063;39.614;8.814;2023-03-12T07:05:24;19.00;86.70
66271;DHT22;53063;39.614;8.814;2023-03-12T07:07:50;18.40;88.00
66271;DHT22;53063;39.614;8.814;2023-03-12T07:10:17;18.00;87.50
66271;DHT22;53063;39.614;8.814;2023-03-12T07:12:43;18.70;88.00
66271;DHT22;53063;39.614;8.814;2023-03-12T07:15:11;19.90;81.80
66271;DHT22;53063;39.614;8.814;2023-03-12T07:17:37;20.00;77.70
66271;DHT22;53063;39.614;8.814;2023-03-12T07:20:04;20.50;74.00
66271;DHT22;53063;39.614;8.814;2023-03-12T07:22:30;19.90;76.80
66271;DHT22;53063;39.614;8.814;2023-03-12T07:24:56;19.50;77.90
66271;DHT22;53063;39.614;8.814;2023-03-12T07:27:22;20.80;73.80
66271;DHT22;53063;39.614;8.814;2023-03-12T07:29:47;20.30;72.00
66271;DHT22;53063;39.614;8.814;2023-03-12T07:32:14;20.30;72.20
66271;DHT22;53063;39.614;8.814;2023-03-12T07:34:40;21.40;69.30
66271;DHT22;53063;39.614;8.814;2023-03-12T07:37:06;21.90;66.00
66271;DHT22;53063;39.614;8.814;2023-03-12T07:39:32;22.50;65.30
66271;DHT22;53063;39.614;8.814;2023-03-12T07:41:58;23.70;59.70
66271;DHT22;53063;39.614;8.814;2023-03-12T07:44:24;24.50;58.00
66271;DHT22;53063;39.614;8.814;2023-03-12T07:46:51;24.60;55.20
66271;DHT22;53063;39.614;8.814;2023-03-12T07:49:17;23.50;59.50
66271;DHT22;53063;39.614;8.814;2023-03-12T07:51:43;24.60;57.20
66271;DHT22;53063;39.614;8.814;2023-03-12T07:54:09;24.70;55.00
66271;DHT22;53063;39.614;8.814;2023-03-12T07:56:35;25.20;54.10
66271;DHT22;53063;39.614;8.814;2023-03-12T07:59:01;24.50;55.80
66271;DHT22;53063;39.614;8.814;2023-03-12T08:01:27;25.00;54.50
66271;DHT22;53063;39.614;8.814;2023-03-12T08:04:00;25.30;53.80
66271;DHT22;53063;39.614;8.814;2023-03-12T08:06:27;25.40;54.00
66271;DHT22;53063;39.614;8.814;2023-03-12T08:08:54;25.00;53.70
66271;DHT22;53063;39.614;8.814;2023-03-12T08:11:20;24.90;54.30
66271;DHT22;53063;39.614;8.814;2023-03-12T08:13:46;26.30;51.10
66271;DHT22;53063;39.614;8.814;2023-03-12T08:16:12;25.60;51.20
66271;DHT22;53063;39.614;8.814;2023-03-12T08:18:39;26.40;50.10
66271;DHT22;53063;39.614;8.814;2023-03-12T08:21:07;26.10;50.10
66271;DHT22;53063;39.614;8.814;2023-03-12T08:23:33;26.30;50.70
66271;DHT22;53063;39.614;8.814;2023-03-12T08:26:00;27.10;48.40
66271;DHT22;53063;39.614;8.814;2023-03-12T08:28:26;26.80;49.90
66271;DHT22;53063;39.614;8.814;2023-03-12T08:30:54;27.10;48.80
66271;DHT22;53063;39.614;8.814;2023-03-12T08:33:21;26.50;48.90
66271;DHT22;53063;39.614;8.814;2023-03-12T08:35:48;26.70;48.30
66271;DHT22;53063;39.614;8.814;2023-03-12T08:38:14;25.80;50.10
66271;DHT22;53063;39.614;8.814;2023-03-12T08:40:40;25.70;50.30
66271;DHT22;53063;39.614;8.814;2023-03-12T08:43:06;25.50;50.30
66271;DHT22;53063;39.614;8.814;2023-03-12T08:45:33;24.90;53.50
66271;DHT22;53063;39.614;8.814;2023-03-12T08:48:02;25.90;50.70
66271;DHT22;53063;39.614;8.814;2023-03-12T08:50:28;25.40;51.50
66271;DHT22;53063;39.614;8.814;2023-03-12T08:52:57;26.30;49.90
66271;DHT22;53063;39.614;8.814;2023-03-12T08:55:24;26.50;48.30
66271;DHT22;53063;39.614;8.814;2023-03-12T08:57:53;26.30;48.50
66271;DHT22;53063;39.614;8.814;2023-03-12T09:00:19;26.80;48.90
66271;DHT22;53063;39.614;8.814;2023-03-12T09:02:46;26.50;48.50
66271;DHT22;53063;39.614;8.814;2023-03-12T09:05:12;26.30;49.00
66271;DHT22;53063;39.614;8.814;2023-03-12T09:07:39;26.60;48.40
66271;DHT22;53063;39.614;8.814;2023-03-12T09:10:05;26.10;49.50
66271;DHT22;53063;39.614;8.814;2023-03-12T09:12:31;25.20;51.90
66271;DHT22;53063;39.614;8.814;2023-03-12T09:14:57;23.40;55.10
66271;DHT22;53063;39.614;8.814;2023-03-12T09:17:23;22.50;58.40
66271;DHT22;53063;39.614;8.814;2023-03-12T09:19:49;22.10;60.50
66271;DHT22;53063;39.614;8.814;2023-03-12T09:22:15;21.70;60.30
66271;DHT22;53063;39.614;8.814;2023-03-12T09:24:41;21.40;60.80
66271;DHT22;53063;39.614;8.814;2023-03-12T09:27:07;21.80;61.20
66271;DHT22;53063;39.614;8.814;2023-03-12T09:29:33;21.10;62.30
66271;DHT22;53063;39.614;8.814;2023-03-12T09:32:00;21.20;62.70
66271;DHT22;53063;39.614;8.814;2023-03-12T09:34:26;21.10;62.70
66271;DHT22;53063;39.614;8.814;2023-03-12T09:36:52;21.80;61.30
66271;DHT22;53063;39.614;8.814;2023-03-12T09:39:18;21.50;61.10
66271;DHT22;53063;39.614;8.814;2023-03-12T09:41:46;22.00;59.80
66271;DHT22;53063;39.614;8.814;2023-03-12T09:46:57;22.10;60.70
66271;DHT22;53063;39.614;8.814;2023-03-12T09:49:42;21.50;60.90
66271;DHT22;53063;39.614;8.814;2023-03-12T09:52:31;21.30;60.40
66271;DHT22;53063;39.614;8.814;2023-03-12T09:55:06;21.50;60.50
66271;DHT22;53063;39.614;8.814;2023-03-12T09:57:33;21.40;62.40
66271;DHT22;53063;39.614;8.814;2023-03-12T09:59:59;21.50;61.00
66271;DHT22;53063;39.614;8.814;2023-03-12T10:08:00;21.80;59.80
66271;DHT22;53063;39.614;8.814;2023-03-12T10:18:56;21.50;59.70
66271;DHT22;53063;39.614;8.814;2023-03-12T10:24:21;21.90;58.30
66271;DHT22;53063;39.614;8.814;2023-03-12T10:26:57;22.30;58.80
66271;DHT22;53063;39.614;8.814;2023-03-12T10:29:32;22.10;59.40
66271;DHT22;53063;39.614;8.814;2023-03-12T10:32:21;21.60;58.80
66271;DHT22;53063;39.614;8.814;2023-03-12T10:34:55;21.70;59.60
66271;DHT22;53063;39.614;8.814;2023-03-12T10:37:49;21.50;60.20
66271;DHT22;53063;39.614;8.814;2023-03-12T10:40:40;21.90;59.40
66271;DHT22;53063;39.614;8.814;2023-03-12T10:43:06;21.50;59.30
66271;DHT22;53063;39.614;8.814;2023-03-12T10:45:35;21.70;59.70
66271;DHT22;53063;39.614;8.814;2023-03-12T10:48:08;21.50;59.90
66271;DHT22;53063;39.614;8.814;2023-03-12T10:50:39;21.70;58.90
66271;DHT22;53063;39.614;8.814;2023-03-12T10:53:22;21.40;60.20
66271;DHT22;53063;39.614;8.814;2023-03-12T10:56:14;21.50;59.90
66271;DHT22;53063;39.614;8.814;2023-03-12T10:58:45;21.50;59.80
66271;DHT22;53063;39.614;8.814;2023-03-12T11:01:22;22.00;59.30
66271;DHT22;53063;39.614;8.814;2023-03-12T11:03:51;21.60;60.20
66271;DHT22;53063;39.614;8.814;2023-03-12T11:06:27;21.70;58.90
66271;DHT22;53063;39.614;8.814;2023-03-12T11:11:35;21.90;57.60
66271;DHT22;53063;39.614;8.814;2023-03-12T11:14:16;21.80;58.40
66271;DHT22;53063;39.614;8.814;2023-03-12T11:16:43;22.00;57.50
66271;DHT22;53063;39.614;8.814;2023-03-12T11:19:12;21.80;57.80
66271;DHT22;53063;39.614;8.814;2023-03-12T11:21:39;22.00;58.10
66271;DHT22;53063;39.614;8.814;2023-03-12T11:24:18;21.80;57.90
66271;DHT22;53063;39.614;8.814;2023-03-12T11:29:29;22.00;57.30
66271;DHT22;53063;39.614;8.814;2023-03-12T11:32:07;22.10;57.20
66271;DHT22;53063;39.614;8.814;2023-03-12T11:34:37;22.00;56.80
66271;DHT22;53063;39.614;8.814;2023-03-12T11:37:10;22.20;56.00
66271;DHT22;53063;39.614;8.814;2023-03-12T11:40:01;22.10;56.80
66271;DHT22;53063;39.614;8.814;2023-03-12T11:43:03;22.20;56.80
66271;DHT22;53063;39.614;8.814;2023-03-12T11:45:59;22.20;57.40
66271;DHT22;53063;39.614;8.814;2023-03-12T11:57:09;22.20;56.10
66271;DHT22;53063;39.614;8.814;2023-03-12T11:59:52;22.20;55.60
66271;DHT22;53063;39.614;8.814;2023-03-12T12:02:48;22.00;54.90
66271;DHT22;53063;39.614;8.814;2023-03-12T12:08:15;22.30;54.50
66271;DHT22;53063;39.614;8.814;2023-03-12T12:13:37;21.80;55.40
66271;DHT22;53063;39.614;8.814;2023-03-12T12:21:05;22.00;55.30
66271;DHT22;53063;39.614;8.814;2023-03-12T12:26:09;21.90;55.00
66271;DHT22;53063;39.614;8.814;2023-03-12T12:36:41;21.30;56.10
66271;DHT22;53063;39.614;8.814;2023-03-12T12:39:31;21.20;56.00
66271;DHT22;53063;39.614;8.814;2023-03-12T12:42:04;21.40;56.90
66271;DHT22;53063;39.614;8.814;2023-03-12T12:44:45;21.40;56.30
66271;DHT22;53063;39.614;8.814;2023-03-12T12:47:17;21.30;56.00
66271;DHT22;53063;39.614;8.814;2023-03-12T12:49:45;21.10;57.50
66271;DHT22;53063;39.614;8.814;2023-03-12T12:52:17;21.60;56.60
66271;DHT22;53063;39.614;8.814;2023-03-12T12:57:59;21.40;56.20
66271;DHT22;53063;39.614;8.814;2023-03-12T13:00:47;21.30;56.90
66271;DHT22;53063;39.614;8.814;2023-03-12T13:03:17;21.30;57.00
66271;DHT22;53063;39.614;8.814;2023-03-12T13:06:06;21.50;57.60
66271;DHT22;53063;39.614;8.814;2023-03-12T13:13:50;21.20;58.00
66271;DHT22;53063;39.614;8.814;2023-03-12T13:24:41;20.80;58.60
66271;DHT22;53063;39.614;8.814;2023-03-12T13:29:43;20.60;59.00
66271;DHT22;53063;39.614;8.814;2023-03-12T13:43:12;20.80;58.30
66271;DHT22;53063;39.614;8.814;2023-03-12T13:46:06;20.70;58.60
66271;DHT22;53063;39.614;8.814;2023-03-12T13:48:33;20.10;60.10
66271;DHT22;53063;39.614;8.814;2023-03-12T13:51:10;20.10;60.10
66271;DHT22;53063;39.614;8.814;2023-03-12T13:53:39;20.10;60.50
66271;DHT22;53063;39.614;8.814;2023-03-12T13:56:11;20.20;60.70
66271;DHT22;53063;39.614;8.814;2023-03-12T13:58:43;19.80;61.70
66271;DHT22;53063;39.614;8.814;2023-03-12T14:01:20;19.90;61.50
66271;DHT22;53063;39.614;8.814;2023-03-12T14:04:07;19.70;62.60
66271;DHT22;53063;39.614;8.814;2023-03-12T14:06:53;20.10;61.00
66271;DHT22;53063;39.614;8.814;2023-03-12T14:10:09;19.70;62.60
66271;DHT22;53063;39.614;8.814;2023-03-12T14:17:27;19.50;63.70
66271;DHT22;53063;39.614;8.814;2023-03-12T14:20:18;19.40;63.00
66271;DHT22;53063;39.614;8.814;2023-03-12T14:22:55;19.20;64.10
66271;DHT22;53063;39.614;8.814;2023-03-12T14:25:38;19.20;64.60
66271;DHT22;53063;39.614;8.814;2023-03-12T14:28:21;19.40;64.00
66271;DHT22;53063;39.614;8.814;2023-03-12T14:31:18;19.20;64.00
66271;DHT22;53063;39.614;8.814;2023-03-12T14:36:35;19.20;64.50
66271;DHT22;53063;39.614;8.814;2023-03-12T14:39:31;19.70;65.60
66271;DHT22;53063;39.614;8.814;2023-03-12T14:42:00;19.50;63.80
66271;DHT22;53063;39.614;8.814;2023-03-12T14:44:28;19.10;64.90
66271;DHT22;53063;39.614;8.814;2023-03-12T14:47:09;19.00;65.30
66271;DHT22;53063;39.614;8.814;2023-03-12T14:49:44;19.10;66.10
66271;DHT22;53063;39.614;8.814;2023-03-12T14:52:20;19.00;65.20
66271;DHT22;53063;39.614;8.814;2023-03-12T14:55:00;18.90;65.90
66271;DHT22;53063;39.614;8.814;2023-03-12T14:57:27;18.90;65.70
66271;DHT22;53063;39.614;8.814;2023-03-12T14:59:58;19.00;65.00
66271;DHT22;53063;39.614;8.814;2023-03-12T15:02:25;19.20;65.30
66271;DHT22;53063;39.614;8.814;2023-03-12T15:04:54;19.10;65.30
66271;DHT22;53063;39.614;8.814;2023-03-12T15:07:33;19.00;65.70
66271;DHT22;53063;39.614;8.814;2023-03-12T15:10:03;19.00;65.60
66271;DHT22;53063;39.614;8.814;2023-03-12T15:12:36;19.10;65.70
66271;DHT22;53063;39.614;8.814;2023-03-12T15:15:08;18.90;66.20
66271;DHT22;53063;39.614;8.814;2023-03-12T15:17:35;18.80;66.10
66271;DHT22;53063;39.614;8.814;2023-03-12T15:20:06;18.60;67.20
66271;DHT22;53063;39.614;8.814;2023-03-12T15:22:34;18.40;67.40
66271;DHT22;53063;39.614;8.814;2023-03-12T15:25:03;18.30;68.90
66271;DHT22;53063;39.614;8.814;2023-03-12T15:27:39;18.30;68.90
66271;DHT22;53063;39.614;8.814;2023-03-12T15:30:25;18.40;68.60
66271;DHT22;53063;39.614;8.814;2023-03-12T15:33:12;18.50;68.20
66271;DHT22;53063;39.614;8.814;2023-03-12T15:38:30;18.20;69.10
66271;DHT22;53063;39.614;8.814;2023-03-12T15:41:07;18.00;69.10
66271;DHT22;53063;39.614;8.814;2023-03-12T15:43:34;17.90;69.50
66271;DHT22;53063;39.614;8.814;2023-03-12T15:46:03;17.90;70.50
66271;DHT22;53063;39.614;8.814;2023-03-12T15:48:33;18.00;69.80
66271;DHT22;53063;39.614;8.814;2023-03-12T15:51:00;17.80;69.00
66271;DHT22;53063;39.614;8.814;2023-03-12T15:53:32;17.50;70.00
66271;DHT22;53063;39.614;8.814;2023-03-12T15:56:03;17.60;70.60
66271;DHT22;53063;39.614;8.814;2023-03-12T15:58:32;17.60;69.90
66271;DHT22;53063;39.614;8.814;2023-03-12T16:01:13;17.60;70.90
66271;DHT22;53063;39.614;8.814;2023-03-12T16:03:41;17.70;69.60
66271;DHT22;53063;39.614;8.814;2023-03-12T16:06:18;17.40;70.20
66271;DHT22;53063;39.614;8.814;2023-03-12T16:08:45;17.50;71.30
66271;DHT22;53063;39.614;8.814;2023-03-12T16:11:17;17.40;71.10
66271;DHT22;53063;39.614;8.814;2023-03-12T16:13:46;17.40;71.10
66271;DHT22;53063;39.614;8.814;2023-03-12T16:16:13;17.30;71.80
66271;DHT22;53063;39.614;8.814;2023-03-12T16:18:40;17.10;72.30
66271;DHT22;53063;39.614;8.814;2023-03-12T16:21:06;17.20;72.10
66271;DHT22;53063;39.614;8.814;2023-03-12T16:23:32;17.00;72.80
66271;DHT22;53063;39.614;8.814;2023-03-12T16:25:59;17.00;73.50
66271;DHT22;53063;39.614;8.814;2023-03-12T16:28:26;17.00;73.50
66271;DHT22;53063;39.614;8.814;2023-03-12T16:30:52;17.00;74.50
66271;DHT22;53063;39.614;8.814;2023-03-12T16:33:21;16.90;74.50
66271;DHT22;53063;39.614;8.814;2023-03-12T16:35:47;16.90;74.70
66271;DHT22;53063;39.614;8.814;2023-03-12T16:38:13;16.80;75.60
66271;DHT22;53063;39.614;8.814;2023-03-12T16:40:45;16.80;75.30
66271;DHT22;53063;39.614;8.814;2023-03-12T16:43:21;16.60;75.70
66271;DHT22;53063;39.614;8.814;2023-03-12T16:45:48;16.60;76.50
66271;DHT22;53063;39.614;8.814;2023-03-12T16:48:17;16.50;76.30
66271;DHT22;53063;39.614;8.814;2023-03-12T16:50:49;16.50;77.10
66271;DHT22;53063;39.614;8.814;2023-03-12T16:53:15;16.50;77.20
66271;DHT22;53063;39.614;8.814;2023-03-12T16:55:58;16.50;77.30
66271;DHT22;53063;39.614;8.814;2023-03-12T16:58:26;16.60;77.00
66271;DHT22;53063;39.614;8.814;2023-03-12T17:00:53;16.40;77.70
66271;DHT22;53063;39.614;8.814;2023-03-12T17:03:32;16.30;77.90
66271;DHT22;53063;39.614;8.814;2023-03-12T17:05:59;16.30;78.60
66271;DHT22;53063;39.614;8.814;2023-03-12T17:08:25;16.30;79.30
66271;DHT22;53063;39.614;8.814;2023-03-12T17:10:52;16.10;80.50
66271;DHT22;53063;39.614;8.814;2023-03-12T17:13:27;16.10;80.90
66271;DHT22;53063;39.614;8.814;2023-03-12T17:15:53;15.90;82.00
66271;DHT22;53063;39.614;8.814;2023-03-12T17:18:19;15.70;83.90
66271;DHT22;53063;39.614;8.814;2023-03-12T17:20:47;15.60;84.90
66271;DHT22;53063;39.614;8.814;2023-03-12T17:23:13;15.60;86.50
66271;DHT22;53063;39.614;8.814;2023-03-12T17:25:41;15.50;86.80
66271;DHT22;53063;39.614;8.814;2023-03-12T17:28:08;15.30;88.20